createdAt,value
2023-04-26T00:00:31.210Z,13.50
2023-04-26T00:03:15.028Z,10.10
2023-04-26T00:05:43.940Z,12.60
2023-04-26T00:08:12.836Z,9.80
2023-04-26T00:10:41.527Z,11.20
2023-04-26T00:13:10.171Z,12.30
2023-04-26T00:15:38.535Z,12.10
2023-04-26T00:18:07.248Z,11.90
2023-04-26T00:20:36.070Z,10.00
2023-04-26T00:23:04.860Z,10.90
2023-04-26T00:25:33.341Z,12.30
2023-04-26T00:28:02.234Z,9.30
2023-04-26T00:30:30.778Z,12.00
2023-04-26T00:32:59.068Z,16.90
2023-04-26T00:35:27.888Z,17.00
2023-04-26T00:37:56.473Z,12.80
2023-04-26T00:40:25.152Z,17.40
2023-04-26T00:43:00.493Z,14.50
2023-04-26T00:45:29.432Z,12.00
2023-04-26T00:48:01.908Z,12.40
2023-04-26T00:50:32.089Z,14.40
2023-04-26T00:53:03.040Z,13.00
2023-04-26T00:55:31.719Z,15.10
2023-04-26T00:58:00.909Z,16.10
2023-04-26T01:00:30.124Z,11.50
2023-04-26T01:02:59.411Z,10.10
2023-04-26T01:05:27.856Z,13.70
2023-04-26T01:07:56.896Z,13.50
2023-04-26T01:10:26.037Z,13.50
2023-04-26T01:12:55.204Z,11.70
2023-04-26T01:15:25.105Z,11.70
2023-04-26T01:17:53.844Z,11.20
2023-04-26T01:20:22.592Z,12.60
2023-04-26T01:22:51.364Z,13.40
2023-04-26T01:25:20.568Z,10.50
2023-04-26T01:27:48.913Z,12.60
2023-04-26T01:30:17.861Z,12.10
2023-04-26T01:32:46.676Z,12.60
2023-04-26T01:35:15.232Z,16.10
2023-04-26T01:37:44.718Z,13.30
2023-04-26T01:40:14.013Z,13.90
2023-04-26T01:42:42.262Z,13.50
2023-04-26T01:45:12.006Z,10.60
2023-04-26T01:47:59.202Z,14.60
2023-04-26T01:50:28.012Z,13.40
2023-04-26T01:52:56.491Z,11.10
2023-04-26T01:55:24.979Z,12.10
2023-04-26T01:57:53.663Z,9.00
2023-04-26T02:00:22.388Z,13.60
2023-04-26T02:02:51.067Z,14.00
2023-04-26T02:05:20.004Z,11.90
2023-04-26T02:07:48.654Z,10.90
2023-04-26T02:10:17.551Z,10.60
2023-04-26T02:12:46.608Z,11.90
2023-04-26T02:15:15.611Z,11.70
2023-04-26T02:17:44.166Z,12.20
2023-04-26T02:20:12.986Z,12.70
2023-04-26T02:22:41.353Z,15.20
2023-04-26T02:25:10.036Z,13.20
2023-04-26T02:27:38.831Z,14.40
2023-04-26T02:30:07.924Z,19.30
2023-04-26T02:32:36.977Z,13.60
2023-04-26T02:35:06.291Z,12.00
2023-04-26T02:37:34.910Z,12.10
2023-04-26T02:40:05.738Z,15.40
2023-04-26T02:42:34.434Z,11.10
2023-04-26T02:45:02.912Z,13.10
2023-04-26T02:47:31.853Z,15.00
2023-04-26T02:50:00.693Z,10.70
2023-04-26T02:52:29.386Z,10.50
2023-04-26T02:54:58.071Z,12.60
2023-04-26T02:57:28.461Z,14.10
2023-04-26T02:59:57.340Z,14.20
2023-04-26T03:02:26.243Z,17.70
2023-04-26T03:04:56.809Z,17.10
2023-04-26T03:07:25.495Z,12.70
2023-04-26T03:09:53.976Z,11.70
2023-04-26T03:12:22.565Z,16.60
2023-04-26T03:14:51.054Z,11.30
2023-04-26T03:17:20.651Z,16.20
2023-04-26T03:19:49.338Z,13.00
2023-04-26T03:22:18.844Z,13.20
2023-04-26T03:24:47.941Z,13.40
2023-04-26T03:27:16.921Z,11.30
2023-04-26T03:29:45.723Z,12.00
2023-04-26T03:32:14.323Z,14.70
2023-04-26T03:34:43.829Z,13.60
2023-04-26T03:37:13.636Z,13.60
2023-04-26T03:39:43.648Z,12.90
2023-04-26T03:42:12.450Z,12.60
2023-04-26T03:44:41.140Z,15.30
2023-04-26T03:47:09.617Z,10.40
2023-04-26T03:49:39.125Z,11.30
2023-04-26T03:52:07.493Z,12.30
2023-04-26T03:54:36.495Z,12.00
2023-04-26T03:57:05.065Z,14.90
2023-04-26T03:59:34.265Z,13.30
2023-04-26T04:02:02.794Z,13.00
2023-04-26T04:04:32.809Z,13.50
2023-04-26T04:07:02.380Z,12.70
2023-04-26T04:09:30.859Z,12.60
2023-04-26T04:11:59.646Z,12.30
2023-04-26T04:14:28.525Z,16.20
2023-04-26T04:16:57.540Z,12.10
2023-04-26T04:19:26.640Z,11.70
2023-04-26T04:21:55.188Z,12.90
2023-04-26T04:24:24.002Z,13.80
2023-04-26T04:26:53.747Z,19.50
2023-04-26T04:29:23.018Z,11.90
2023-04-26T04:31:51.453Z,12.60
2023-04-26T04:34:20.249Z,11.40
2023-04-26T04:36:49.383Z,11.00
2023-04-26T04:39:17.660Z,9.90
2023-04-26T04:41:50.546Z,11.00
2023-04-26T04:44:20.871Z,12.40
2023-04-26T04:46:49.674Z,11.00
2023-04-26T04:49:19.374Z,10.40
2023-04-26T04:51:48.285Z,16.10
2023-04-26T04:54:18.345Z,14.10
2023-04-26T04:56:48.575Z,14.00
2023-04-26T04:59:18.526Z,11.80
2023-04-26T05:01:47.767Z,9.70
2023-04-26T05:04:17.660Z,10.00
2023-04-26T05:06:46.532Z,11.10
2023-04-26T05:09:14.912Z,9.90
2023-04-26T05:11:43.563Z,14.40
2023-04-26T05:14:12.798Z,11.10
2023-04-26T05:16:41.665Z,11.80
2023-04-26T05:19:10.375Z,13.40
2023-04-26T05:21:39.268Z,10.30
2023-04-26T05:24:08.158Z,11.20
2023-04-26T05:26:37.771Z,9.70
2023-04-26T05:29:30.620Z,9.90
2023-04-26T05:32:09.947Z,11.20
2023-04-26T05:34:42.129Z,12.00
2023-04-26T05:37:13.986Z,15.10
2023-04-26T05:39:42.577Z,10.90
2023-04-26T05:42:10.925Z,9.40
2023-04-26T05:44:39.957Z,10.70
2023-04-26T05:47:08.741Z,10.60
2023-04-26T05:49:37.224Z,10.00
2023-04-26T05:52:06.110Z,10.70
2023-04-26T05:54:34.501Z,11.40
2023-04-26T05:57:04.249Z,9.50
2023-04-26T06:04:25.362Z,9.30
2023-04-26T06:08:04.941Z,12.00
2023-04-26T06:11:36.583Z,9.50
2023-04-26T06:15:04.768Z,10.20
2023-04-26T06:18:33.971Z,10.20
2023-04-26T06:22:02.150Z,11.90
2023-04-26T06:25:30.808Z,8.90
2023-04-26T06:36:00.448Z,9.40
2023-04-26T06:39:34.070Z,9.00
2023-04-26T06:43:02.198Z,7.60
2023-04-26T06:46:33.442Z,6.90
2023-04-26T06:49:02.435Z,9.80
2023-04-26T06:51:31.632Z,7.90
2023-04-26T06:54:01.339Z,7.90
2023-04-26T06:56:29.832Z,9.10
2023-04-26T06:59:04.089Z,9.40
2023-04-26T07:01:34.321Z,8.80
2023-04-26T07:04:14.514Z,8.10
2023-04-26T07:06:43.318Z,8.50
2023-04-26T07:09:12.711Z,7.20
2023-04-26T07:11:41.518Z,8.00
2023-04-26T07:14:12.179Z,7.70
2023-04-26T07:16:41.351Z,9.10
2023-04-26T07:19:11.467Z,7.80
2023-04-26T07:21:39.839Z,11.80
2023-04-26T07:24:08.738Z,8.00
2023-04-26T07:26:37.419Z,7.40
2023-04-26T07:29:08.361Z,10.10
2023-04-26T07:31:37.047Z,7.20
2023-04-26T07:34:05.841Z,12.40
2023-04-26T07:36:34.124Z,7.70
2023-04-26T07:39:02.674Z,8.00
2023-04-26T07:41:31.898Z,7.70
2023-04-26T07:44:00.418Z,6.40
2023-04-26T07:46:28.968Z,7.80
2023-04-26T07:48:57.861Z,6.30
2023-04-26T07:51:27.784Z,10.10
2023-04-26T07:53:56.262Z,7.90
2023-04-26T07:56:25.127Z,6.70
2023-04-26T07:58:53.748Z,8.00
2023-04-26T08:01:22.437Z,8.40
2023-04-26T08:03:51.678Z,11.20
2023-04-26T08:06:20.661Z,6.50
2023-04-26T08:08:50.998Z,8.50
2023-04-26T08:11:19.811Z,7.70
2023-04-26T08:13:48.373Z,9.70
2023-04-26T08:16:17.038Z,7.80
2023-04-26T08:18:46.909Z,7.70
2023-04-26T08:21:15.924Z,11.20
2023-04-26T08:23:44.559Z,7.50
2023-04-26T08:26:13.288Z,7.00
2023-04-26T08:28:41.770Z,7.30
2023-04-26T08:31:10.494Z,7.00
2023-04-26T08:33:39.657Z,5.50
2023-04-26T08:36:08.555Z,6.90
2023-04-26T08:38:37.251Z,7.60
2023-04-26T08:41:06.334Z,6.80
2023-04-26T08:43:38.020Z,5.80
2023-04-26T08:46:11.782Z,6.50
2023-04-26T08:48:41.141Z,7.30
2023-04-26T08:51:13.200Z,4.70
2023-04-26T08:53:43.367Z,6.40
2023-04-26T08:56:13.550Z,7.20
2023-04-26T08:58:42.409Z,4.60
2023-04-26T09:01:14.485Z,5.10
2023-04-26T09:03:43.167Z,6.90
2023-04-26T09:06:12.561Z,4.90
2023-04-26T09:08:42.700Z,5.40
2023-04-26T09:11:11.177Z,5.60
2023-04-26T09:13:39.868Z,4.30
2023-04-26T09:16:09.063Z,5.40
2023-04-26T09:18:51.066Z,3.70
2023-04-26T09:22:29.580Z,6.80
2023-04-26T09:25:55.811Z,5.30
2023-04-26T09:29:24.308Z,4.70
2023-04-26T09:32:56.541Z,4.70
2023-04-26T09:36:28.063Z,4.40
2023-04-26T09:39:56.125Z,5.10
2023-04-26T09:43:27.901Z,3.80
2023-04-26T09:46:56.261Z,4.80
2023-04-26T09:49:27.528Z,3.70
2023-04-26T09:52:06.983Z,10.40
2023-04-26T09:54:50.028Z,3.80
2023-04-26T09:57:20.076Z,4.10
2023-04-26T09:59:50.906Z,3.70
2023-04-26T10:02:22.992Z,4.20
2023-04-26T10:04:54.994Z,4.90
2023-04-26T10:07:25.683Z,4.40
2023-04-26T10:09:55.802Z,3.80
2023-04-26T10:12:24.729Z,3.70
2023-04-26T10:14:53.306Z,4.50
2023-04-26T10:17:22.232Z,4.10
2023-04-26T10:19:56.747Z,3.50
2023-04-26T10:22:28.869Z,5.60
2023-04-26T10:24:57.277Z,6.90
2023-04-26T10:27:44.805Z,7.60
2023-04-26T10:30:14.869Z,4.00
2023-04-26T10:32:52.534Z,4.50
2023-04-26T10:35:22.030Z,5.40
2023-04-26T10:38:02.817Z,4.20
2023-04-26T10:40:41.804Z,5.40
2023-04-26T10:43:10.318Z,5.80
2023-04-26T10:45:40.641Z,3.20
2023-04-26T10:48:22.548Z,5.50
2023-04-26T10:51:01.572Z,5.90
2023-04-26T10:53:34.047Z,3.80
2023-04-26T10:56:02.579Z,2.80
2023-04-26T10:58:35.311Z,3.90
2023-04-26T11:01:08.696Z,3.60
2023-04-26T11:03:38.321Z,2.20
2023-04-26T11:06:09.876Z,3.40
2023-04-26T11:08:38.666Z,3.70
2023-04-26T11:11:13.852Z,6.30
2023-04-26T11:13:44.001Z,3.30
2023-04-26T11:16:15.104Z,3.50
2023-04-26T11:18:45.799Z,2.90
2023-04-26T11:21:18.232Z,4.90
2023-04-26T11:23:56.193Z,2.80
2023-04-26T11:26:33.193Z,3.80
2023-04-26T11:29:01.857Z,3.30
2023-04-26T11:31:31.230Z,2.40
2023-04-26T11:34:06.109Z,3.10
2023-04-26T11:36:38.267Z,3.30
2023-04-26T11:39:07.565Z,5.40
2023-04-26T11:41:36.208Z,3.80
2023-04-26T11:44:04.770Z,2.50
2023-04-26T11:46:33.794Z,4.30
2023-04-26T11:49:02.426Z,3.50
2023-04-26T11:51:32.444Z,4.80
2023-04-26T11:54:02.219Z,2.90
2023-04-26T11:56:31.343Z,3.60
2023-04-26T11:59:00.122Z,3.00
2023-04-26T12:01:30.322Z,3.00
2023-04-26T12:04:00.368Z,10.20
2023-04-26T12:06:46.653Z,3.20
2023-04-26T12:09:15.261Z,2.70
2023-04-26T12:11:59.741Z,3.20
2023-04-26T12:14:35.372Z,3.60
2023-04-26T12:17:06.555Z,3.40
2023-04-26T12:19:37.384Z,2.10
2023-04-26T12:22:09.735Z,3.10
2023-04-26T12:24:38.835Z,1.80
2023-04-26T12:27:07.856Z,4.70
2023-04-26T12:29:36.520Z,3.40
2023-04-26T12:32:05.489Z,2.20
2023-04-26T12:34:34.086Z,3.20
2023-04-26T12:37:02.672Z,3.00
2023-04-26T12:39:31.572Z,8.30
2023-04-26T12:42:00.054Z,2.60
2023-04-26T12:44:28.633Z,3.00
2023-04-26T12:46:57.261Z,2.40
2023-04-26T12:49:25.928Z,2.00
2023-04-26T12:51:54.419Z,6.40
2023-04-26T12:54:22.981Z,1.80
2023-04-26T12:56:51.663Z,3.80
2023-04-26T12:59:20.451Z,2.00
2023-04-26T13:01:48.944Z,1.70
2023-04-26T13:04:17.773Z,2.20
2023-04-26T13:06:47.351Z,2.40
2023-04-26T13:09:15.814Z,2.30
2023-04-26T13:11:44.196Z,4.50
2023-04-26T13:15:12.399Z,6.20
2023-04-26T13:18:45.788Z,4.90
2023-04-26T13:22:13.911Z,3.50
2023-04-26T13:25:42.254Z,5.30
2023-04-26T13:29:10.445Z,10.20
2023-04-26T13:32:38.793Z,8.80
2023-04-26T13:36:12.537Z,4.60
2023-04-26T13:39:40.824Z,2.60
2023-04-26T13:43:09.110Z,5.00
2023-04-26T13:46:42.611Z,4.60
2023-04-26T13:49:11.097Z,5.20
2023-04-26T13:51:40.298Z,4.00
2023-04-26T13:54:11.849Z,5.00
2023-04-26T13:56:40.227Z,2.80
2023-04-26T13:59:08.917Z,3.20
2023-04-26T14:01:37.731Z,10.90
2023-04-26T14:04:06.855Z,4.90
2023-04-26T14:06:36.311Z,5.10
2023-04-26T14:09:08.781Z,5.20
2023-04-26T14:11:37.471Z,3.20
2023-04-26T14:14:06.057Z,4.20
2023-04-26T14:16:34.591Z,4.00
2023-04-26T14:19:03.757Z,2.50
2023-04-26T14:21:32.471Z,8.00
2023-04-26T14:24:01.217Z,2.80
2023-04-26T14:27:29.517Z,2.80
2023-04-26T14:29:57.888Z,5.00
2023-04-26T14:32:27.062Z,8.50
2023-04-26T14:34:55.462Z,5.60
2023-04-26T14:37:24.303Z,3.10
2023-04-26T14:39:53.062Z,4.50
2023-04-26T14:42:21.730Z,5.10
2023-04-26T14:44:50.159Z,7.10
2023-04-26T14:47:18.589Z,3.50
2023-04-26T14:49:47.019Z,8.30
2023-04-26T14:52:16.583Z,6.20
2023-04-26T14:54:45.233Z,3.40
2023-04-26T14:57:13.657Z,4.20
2023-04-26T15:00:41.719Z,6.20
2023-04-26T15:04:15.117Z,11.60
2023-04-26T15:07:43.397Z,9.60
2023-04-26T15:11:11.825Z,16.10
2023-04-26T15:14:40.115Z,7.80
2023-04-26T15:18:08.716Z,5.10
2023-04-26T15:24:39.830Z,2.90
2023-04-26T15:28:07.880Z,5.30
2023-04-26T15:31:19.574Z,10.60
2023-04-26T15:33:48.571Z,10.40
2023-04-26T15:36:20.070Z,7.20
2023-04-26T15:38:57.067Z,8.70
2023-04-26T15:46:21.983Z,6.10
2023-04-26T15:49:06.748Z,5.60
2023-04-26T15:51:35.643Z,8.30
2023-04-26T15:54:04.440Z,6.40
2023-04-26T15:56:32.810Z,8.40
2023-04-26T15:59:01.294Z,5.50
2023-04-26T16:02:29.469Z,6.10
2023-04-26T16:04:58.482Z,5.60
2023-04-26T16:07:27.158Z,4.70
2023-04-26T16:09:55.867Z,5.10
2023-04-26T16:13:24.103Z,5.60
2023-04-26T16:16:52.286Z,3.60
2023-04-26T16:20:25.523Z,6.30
2023-04-26T16:22:54.003Z,3.50
2023-04-26T16:25:22.709Z,19.70
2023-04-26T16:28:28.407Z,2.50
2023-04-26T16:30:57.082Z,3.40
2023-04-26T16:34:02.281Z,3.90
2023-04-26T16:36:31.726Z,8.80
2023-04-26T16:39:00.152Z,4.80
2023-04-26T16:41:28.737Z,5.60
2023-04-26T16:43:57.226Z,12.00
2023-04-26T16:46:25.651Z,12.90
2023-04-26T16:48:57.254Z,11.70
2023-04-26T16:52:25.393Z,5.20
2023-04-26T16:55:57.690Z,4.40
2023-04-26T16:59:25.806Z,4.60
2023-04-26T17:02:53.883Z,3.60
2023-04-26T17:05:22.356Z,6.90
2023-04-26T17:08:55.554Z,4.60
2023-04-26T17:12:23.735Z,2.20
2023-04-26T17:15:52.163Z,3.30
2023-04-26T17:19:20.323Z,3.70
2023-04-26T17:22:48.695Z,3.40
2023-04-26T17:26:16.874Z,3.40
2023-04-26T17:29:45.341Z,3.30
2023-04-26T17:33:15.067Z,4.30
2023-04-26T17:39:51.785Z,4.00
2023-04-26T17:47:12.827Z,2.80
2023-04-26T17:49:41.416Z,8.60
2023-04-26T17:53:09.768Z,7.00
2023-04-26T17:56:40.755Z,3.80
2023-04-26T17:59:49.985Z,7.50
2023-04-26T18:02:18.980Z,3.90
2023-04-26T18:04:47.890Z,4.00
2023-04-26T18:07:16.701Z,5.30
2023-04-26T18:09:45.151Z,4.80
2023-04-26T18:12:13.762Z,8.90
2023-04-26T18:14:45.690Z,5.90
2023-04-26T18:19:44.197Z,8.40
2023-04-26T18:22:12.877Z,5.70
2023-04-26T18:24:41.664Z,9.10
2023-04-26T18:27:12.537Z,7.80
2023-04-26T18:29:44.400Z,9.50
2023-04-26T18:32:13.375Z,10.80
2023-04-26T18:34:41.863Z,13.20
2023-04-26T18:37:10.732Z,8.30
2023-04-26T18:39:39.168Z,5.30
2023-04-26T18:42:07.714Z,6.50
2023-04-26T18:44:36.417Z,5.60
2023-04-26T18:47:05.988Z,5.20
2023-04-26T18:49:40.315Z,5.80
2023-04-26T18:52:10.124Z,4.70
2023-04-26T18:54:39.224Z,4.50
2023-04-26T18:57:07.738Z,5.90
2023-04-26T18:59:39.050Z,5.40
2023-04-26T19:06:59.393Z,5.90
2023-04-26T19:10:27.763Z,3.70
2023-04-26T19:14:01.586Z,3.80
2023-04-26T19:17:31.653Z,4.80
2023-04-26T19:21:00.001Z,3.50
2023-04-26T19:24:30.176Z,3.40
2023-04-26T19:27:58.813Z,5.00
2023-04-26T19:31:34.601Z,2.80
2023-04-26T19:35:03.061Z,2.60
2023-04-26T19:38:31.190Z,4.10
2023-04-26T19:45:57.202Z,3.20
2023-04-26T19:49:02.063Z,2.10
2023-04-26T19:51:32.052Z,2.50
2023-04-26T19:54:00.841Z,4.30
2023-04-26T19:56:29.738Z,2.80
2023-04-26T19:58:58.160Z,1.80
2023-04-26T20:01:27.009Z,3.20
2023-04-26T20:03:55.976Z,3.90
2023-04-26T20:06:24.689Z,2.90
2023-04-26T20:08:53.326Z,3.40
2023-04-26T20:11:22.677Z,3.40
2023-04-26T20:13:51.903Z,6.30
2023-04-26T20:16:20.255Z,7.70
2023-04-26T20:18:48.631Z,4.30
2023-04-26T20:21:17.213Z,1.90
2023-04-26T20:23:45.998Z,2.70
2023-04-26T20:26:14.486Z,3.10
2023-04-26T20:28:42.968Z,4.60
2023-04-26T20:31:12.061Z,3.40
2023-04-26T20:33:40.338Z,5.00
2023-04-26T20:36:09.432Z,2.70
2023-04-26T20:38:38.396Z,4.90
2023-04-26T20:41:06.803Z,4.20
2023-04-26T20:43:35.602Z,3.00
2023-04-26T20:46:04.647Z,2.60
2023-04-26T20:48:33.281Z,3.80
2023-04-26T20:51:02.274Z,2.90
2023-04-26T20:53:31.372Z,4.30
2023-04-26T20:55:59.958Z,5.20
2023-04-26T20:58:30.075Z,3.60
2023-04-26T21:00:59.723Z,7.30
2023-04-26T21:04:28.124Z,5.40
2023-04-26T21:07:56.423Z,4.00
2023-04-26T21:11:24.453Z,4.80
2023-04-26T21:14:56.402Z,3.00
2023-04-26T21:18:24.615Z,5.60
2023-04-26T21:21:52.823Z,4.90
2023-04-26T21:25:26.363Z,6.10
2023-04-26T21:28:54.630Z,6.40
2023-04-26T21:32:22.678Z,4.20
2023-04-26T21:35:51.023Z,4.10
2023-04-26T21:39:19.205Z,8.20
2023-04-26T21:43:03.854Z,5.70
2023-04-26T21:46:33.311Z,10.70
2023-04-26T21:49:02.491Z,7.10
2023-04-26T21:51:31.694Z,6.30
2023-04-26T21:54:00.126Z,7.50
2023-04-26T21:56:28.750Z,11.10
2023-04-26T21:58:57.131Z,7.30
2023-04-26T22:01:25.852Z,7.10
2023-04-26T22:03:54.542Z,10.60
2023-04-26T22:06:23.195Z,12.10
2023-04-26T22:08:51.872Z,11.80
2023-04-26T22:11:20.298Z,7.00
2023-04-26T22:13:48.835Z,7.80
2023-04-26T22:16:17.340Z,11.10
2023-04-26T22:18:45.822Z,11.30
2023-04-26T22:21:14.280Z,12.00
2023-04-26T22:23:42.660Z,8.60
2023-04-26T22:26:11.448Z,9.10
2023-04-26T22:28:39.984Z,14.50
2023-04-26T22:31:08.312Z,11.10
2023-04-26T22:33:37.068Z,10.30
2023-04-26T22:36:06.295Z,10.30
2023-04-26T22:38:34.576Z,9.30
2023-04-26T22:41:04.695Z,16.80
2023-04-26T22:43:34.147Z,13.20
2023-04-26T22:46:02.511Z,14.10
2023-04-26T22:48:31.173Z,8.40
2023-04-26T22:51:00.201Z,13.00
2023-04-26T22:53:28.639Z,22.40
2023-04-26T22:55:57.011Z,15.20
2023-04-26T22:58:25.611Z,13.10
2023-04-26T23:00:54.136Z,8.00
2023-04-26T23:03:23.163Z,10.30
2023-04-26T23:05:52.076Z,12.50
2023-04-26T23:08:20.493Z,16.70
2023-04-26T23:10:49.421Z,12.20
2023-04-26T23:13:17.938Z,14.10
2023-04-26T23:15:46.514Z,15.90
2023-04-26T23:18:16.531Z,11.90
2023-04-26T23:20:45.014Z,11.60
2023-04-26T23:23:13.495Z,9.50
2023-04-26T23:25:42.422Z,11.40
2023-04-26T23:28:11.091Z,17.20
2023-04-26T23:30:39.557Z,10.00
2023-04-26T23:33:08.100Z,10.20
2023-04-26T23:35:41.615Z,9.30
2023-04-26T23:38:10.161Z,11.60
2023-04-26T23:40:38.706Z,9.70
2023-04-26T23:43:07.495Z,9.40
2023-04-26T23:45:36.181Z,10.10
2023-04-26T23:48:05.402Z,10.90
2023-04-26T23:50:33.757Z,14.20
2023-04-26T23:53:02.137Z,8.60
2023-04-26T23:55:31.030Z,10.40
2023-04-26T23:57:59.513Z,12.20
